Terminal Aerodrome Forecast
Issued by NWS Brownsville, TX

Home | Current Version | Previous Version | Text Only | Print | Product List | Glossary On
Versions: 1 2 3 4 5 6 7 8 9 10 11 12 13 14 15 16 17 18 19 20
000
FTUS44 KBRO 270202 AAA
TAFMFE
TAF AMD
KMFE 270202Z 2702/2724 14017G22KT P6SM SKC
     FM270400 14008KT P6SM SCT020
      TEMPO 2709/2713 5SM BR BKN015
     FM271400 16012KT P6SM BKN040
     FM271800 17014G20KT P6SM SCT050=

USA.gov is the U.S. government's official web portal to all federal, state and local government web resources and services.